createdAt,value
2019-01-25T00:00:23.000Z,100103
2019-01-25T00:01:23.000Z,100104
2019-01-25T00:03:08.000Z,100107
2019-01-25T00:05:23.000Z,100117
2019-01-25T00:06:23.000Z,100115
2019-01-25T00:08:23.000Z,100112
2019-01-25T00:09:53.000Z,100121
2019-01-25T00:11:23.000Z,100118
2019-01-25T00:12:23.000Z,100126
2019-01-25T00:14:23.000Z,100122
2019-01-25T00:16:23.000Z,100119
2019-01-25T00:18:07.000Z,100118
2019-01-25T00:19:23.000Z,100115
2019-01-25T00:21:23.000Z,100112
2019-01-25T00:22:23.000Z,100110
2019-01-25T00:23:52.000Z,100104
2019-01-25T00:25:08.000Z,100104
2019-01-25T00:26:23.000Z,100101
2019-01-25T00:28:23.000Z,100105
2019-01-25T00:29:23.000Z,100104
2019-01-25T00:31:07.000Z,100111
2019-01-25T00:32:23.000Z,100112
2019-01-25T00:33:23.000Z,100110
2019-01-25T00:34:52.000Z,100113
2019-01-25T00:36:23.000Z,100106
2019-01-25T00:38:23.000Z,100101
2019-01-25T00:40:23.000Z,100107
2019-01-25T00:42:23.000Z,100107
2019-01-25T00:43:23.000Z,100104
2019-01-25T00:45:23.000Z,100104
2019-01-25T00:47:23.000Z,100105
2019-01-25T00:48:23.000Z,100111
2019-01-25T00:50:07.000Z,100102
2019-01-25T00:51:23.000Z,100103
2019-01-25T00:53:23.000Z,100099
2019-01-25T00:55:23.000Z,100095
2019-01-25T00:57:23.000Z,100098
2019-01-25T00:58:23.000Z,100091
2019-01-25T00:59:23.000Z,100098
2019-01-25T01:01:23.000Z,100102
2019-01-25T01:03:23.000Z,100102
2019-01-25T01:05:23.000Z,100098
2019-01-25T01:06:23.000Z,100098
2019-01-25T01:07:23.000Z,100092
2019-01-25T01:09:23.000Z,100095
2019-01-25T01:11:23.000Z,100090
2019-01-25T01:13:23.000Z,100096
2019-01-25T01:15:08.000Z,100098
2019-01-25T01:16:23.000Z,100097
2019-01-25T01:18:23.000Z,100097
2019-01-25T01:20:23.000Z,100099
2019-01-25T01:22:23.000Z,100099
2019-01-25T01:24:23.000Z,100104
2019-01-25T01:25:23.000Z,100105
2019-01-25T01:27:23.000Z,100101
2019-01-25T01:29:23.000Z,100101
2019-01-25T01:30:23.000Z,100098
2019-01-25T01:32:23.000Z,100108
2019-01-25T01:33:23.000Z,100105
2019-01-25T01:34:23.000Z,100101
2019-01-25T01:36:23.000Z,100109
2019-01-25T01:38:23.000Z,100110
2019-01-25T01:40:08.000Z,100109
2019-01-25T01:41:23.000Z,100109
2019-01-25T01:43:23.000Z,100112
2019-01-25T01:44:23.000Z,100117
2019-01-25T01:46:23.000Z,100124
2019-01-25T01:48:23.000Z,100128
2019-01-25T01:50:23.000Z,100138
2019-01-25T01:51:23.000Z,100133
2019-01-25T01:53:23.000Z,100137
2019-01-25T01:55:08.000Z,100136
2019-01-25T01:56:23.000Z,100133
2019-01-25T01:58:23.000Z,100134
2019-01-25T02:00:23.000Z,100131
2019-01-25T02:01:23.000Z,100138
2019-01-25T02:03:08.000Z,100134
2019-01-25T02:04:23.000Z,100137
2019-01-25T02:05:23.000Z,100133
2019-01-25T02:06:23.000Z,100136
2019-01-25T02:08:23.000Z,100138
2019-01-25T02:10:23.000Z,100127
2019-01-25T02:12:23.000Z,100123
2019-01-25T02:13:23.000Z,100124
2019-01-25T02:15:23.000Z,100120
2019-01-25T02:17:23.000Z,100114
2019-01-25T02:18:23.000Z,100110
2019-01-25T02:20:23.000Z,100110
2019-01-25T02:21:23.000Z,100108
2019-01-25T02:23:23.000Z,100115
2019-01-25T02:25:23.000Z,100109
2019-01-25T02:27:23.000Z,100111
2019-01-25T02:28:23.000Z,100110
2019-01-25T02:30:23.000Z,100107
2019-01-25T02:32:23.000Z,100108
2019-01-25T02:34:23.000Z,100113
2019-01-25T02:36:23.000Z,100112
2019-01-25T02:38:23.000Z,100111
2019-01-25T02:40:08.000Z,100110
2019-01-25T02:41:23.000Z,100109
2019-01-25T02:43:23.000Z,100118
2019-01-25T02:45:23.000Z,100116
2019-01-25T02:46:23.000Z,100118
2019-01-25T02:48:23.000Z,100120
2019-01-25T02:50:23.000Z,100116
2019-01-25T02:52:23.000Z,100120
2019-01-25T02:54:08.000Z,100122
2019-01-25T02:55:23.000Z,100121
2019-01-25T02:57:23.000Z,100116
2019-01-25T02:58:23.000Z,100111
2019-01-25T03:00:23.000Z,100111
2019-01-25T03:01:23.000Z,100112
2019-01-25T03:02:23.000Z,100106
2019-01-25T03:04:23.000Z,100109
2019-01-25T03:06:08.000Z,100109
2019-01-25T03:08:23.000Z,100109
2019-01-25T03:10:23.000Z,100108
2019-01-25T03:12:23.000Z,100112
2019-01-25T03:13:23.000Z,100110
2019-01-25T03:15:23.000Z,100119
2019-01-25T03:16:23.000Z,100120
2019-01-25T03:17:23.000Z,100125
2019-01-25T03:19:08.000Z,100120
2019-01-25T03:20:23.000Z,100121
2019-01-25T03:21:23.000Z,100115
2019-01-25T03:23:23.000Z,100115
2019-01-25T03:24:23.000Z,100117
2019-01-25T03:26:23.000Z,100119
2019-01-25T03:27:23.000Z,100121
2019-01-25T03:29:23.000Z,100121
2019-01-25T03:30:23.000Z,100122
2019-01-25T03:32:23.000Z,100128
2019-01-25T03:34:23.000Z,100118
2019-01-25T03:35:23.000Z,100114
2019-01-25T03:37:23.000Z,100120
2019-01-25T03:39:23.000Z,100122
2019-01-25T03:40:53.000Z,100112
2019-01-25T03:42:23.000Z,100115
2019-01-25T03:43:23.000Z,100109
2019-01-25T03:44:23.000Z,100109
2019-01-25T03:46:08.000Z,100114
2019-01-25T03:47:23.000Z,100114
2019-01-25T03:49:23.000Z,100117
2019-01-25T03:50:23.000Z,100120
2019-01-25T03:52:23.000Z,100119
2019-01-25T03:54:08.000Z,100117
2019-01-25T03:55:23.000Z,100121
2019-01-25T03:57:08.000Z,100117
2019-01-25T03:58:23.000Z,100113
2019-01-25T04:00:23.000Z,100120
2019-01-25T04:02:23.000Z,100117
2019-01-25T04:04:23.000Z,100121
2019-01-25T04:06:23.000Z,100124
2019-01-25T04:07:23.000Z,100117
2019-01-25T04:08:23.000Z,100123
2019-01-25T04:10:23.000Z,100123
2019-01-25T04:11:23.000Z,100124
2019-01-25T04:12:23.000Z,100125
2019-01-25T04:14:23.000Z,100128
2019-01-25T04:16:23.000Z,100118
2019-01-25T04:18:23.000Z,100119
2019-01-25T04:20:23.000Z,100117
2019-01-25T04:22:23.000Z,100118
2019-01-25T04:23:23.000Z,100115
2019-01-25T04:24:23.000Z,100116
2019-01-25T04:26:23.000Z,100121
2019-01-25T04:28:23.000Z,100120
2019-01-25T04:30:08.000Z,100128
2019-01-25T04:31:23.000Z,100126
2019-01-25T04:32:23.000Z,100129
2019-01-25T04:34:23.000Z,100127
2019-01-25T04:36:23.000Z,100132
2019-01-25T04:38:23.000Z,100130
2019-01-25T04:40:23.000Z,100134
2019-01-25T04:42:08.000Z,100130
2019-01-25T04:43:23.000Z,100124
2019-01-25T04:45:23.000Z,100121
2019-01-25T04:47:23.000Z,100117
2019-01-25T04:49:23.000Z,100115
2019-01-25T04:50:23.000Z,100114
2019-01-25T04:52:23.000Z,100106
2019-01-25T04:53:23.000Z,100104
2019-01-25T04:55:23.000Z,100107
2019-01-25T04:56:23.000Z,100110
2019-01-25T04:58:08.000Z,100114
2019-01-25T04:59:23.000Z,100119
2019-01-25T05:01:23.000Z,100122
2019-01-25T05:02:23.000Z,100116
2019-01-25T05:03:23.000Z,100115
2019-01-25T05:05:23.000Z,100119
2019-01-25T05:06:23.000Z,100115
2019-01-25T05:07:23.000Z,100121
2019-01-25T05:09:23.000Z,100121
2019-01-25T05:10:23.000Z,100118
2019-01-25T05:11:23.000Z,100118
2019-01-25T05:13:23.000Z,100118
2019-01-25T05:15:23.000Z,100125
2019-01-25T05:17:23.000Z,100124
2019-01-25T05:19:23.000Z,100127
2019-01-25T05:21:08.000Z,100124
2019-01-25T05:22:23.000Z,100125
2019-01-25T05:24:23.000Z,100141
2019-01-25T05:26:08.000Z,100134
2019-01-25T05:27:23.000Z,100126
2019-01-25T05:29:23.000Z,100140
2019-01-25T05:31:23.000Z,100140
2019-01-25T05:32:23.000Z,100145
2019-01-25T05:34:23.000Z,100140
2019-01-25T05:35:23.000Z,100144
2019-01-25T05:36:23.000Z,100148
2019-01-25T05:38:08.000Z,100148
2019-01-25T05:39:23.000Z,100147
2019-01-25T05:41:08.000Z,100153
2019-01-25T05:42:23.000Z,100158
2019-01-25T05:43:53.000Z,100159
2019-01-25T05:45:23.000Z,100165
2019-01-25T05:47:23.000Z,100156
2019-01-25T05:49:08.000Z,100157
2019-01-25T05:50:08.000Z,100163
2019-01-25T05:51:23.000Z,100156
2019-01-25T05:53:23.000Z,100158
2019-01-25T05:55:23.000Z,100164
2019-01-25T05:57:23.000Z,100162
2019-01-25T05:59:08.000Z,100159
2019-01-25T06:00:23.000Z,100157
2019-01-25T06:02:23.000Z,100157
2019-01-25T06:04:23.000Z,100160
2019-01-25T06:05:23.000Z,100163
2019-01-25T06:06:23.000Z,100159
2019-01-25T06:08:08.000Z,100161
2019-01-25T06:09:23.000Z,100160
2019-01-25T06:11:08.000Z,100162
2019-01-25T06:12:23.000Z,100162
2019-01-25T06:14:23.000Z,100162
2019-01-25T06:16:08.000Z,100160
2019-01-25T06:17:23.000Z,100167
2019-01-25T06:18:23.000Z,100170
2019-01-25T06:19:23.000Z,100168
2019-01-25T06:20:23.000Z,100176
2019-01-25T06:22:08.000Z,100171
2019-01-25T06:23:23.000Z,100176
2019-01-25T06:24:23.000Z,100176
2019-01-25T06:26:23.000Z,100176
2019-01-25T06:28:08.000Z,100172
2019-01-25T06:29:23.000Z,100169
2019-01-25T06:30:23.000Z,100164
2019-01-25T06:32:23.000Z,100158
2019-01-25T06:34:23.000Z,100160
2019-01-25T06:36:23.000Z,100166
2019-01-25T06:38:23.000Z,100161
2019-01-25T06:40:23.000Z,100159
2019-01-25T06:42:23.000Z,100164
2019-01-25T06:44:23.000Z,100162
2019-01-25T06:46:23.000Z,100164
2019-01-25T06:48:23.000Z,100161
2019-01-25T06:49:23.000Z,100168
2019-01-25T06:50:23.000Z,100164
2019-01-25T06:51:23.000Z,100163
2019-01-25T06:53:23.000Z,100168
2019-01-25T06:54:23.000Z,100164
2019-01-25T06:55:23.000Z,100170
2019-01-25T06:57:23.000Z,100175
2019-01-25T06:58:23.000Z,100175
2019-01-25T07:00:23.000Z,100179
2019-01-25T07:01:23.000Z,100178
2019-01-25T07:02:23.000Z,100175
2019-01-25T07:04:23.000Z,100173
2019-01-25T07:05:23.000Z,100175
2019-01-25T07:06:23.000Z,100177
2019-01-25T07:08:23.000Z,100172
2019-01-25T07:09:23.000Z,100169
2019-01-25T07:10:23.000Z,100177
2019-01-25T07:12:23.000Z,100175
2019-01-25T07:14:23.000Z,100174
2019-01-25T07:16:23.000Z,100173
2019-01-25T07:18:23.000Z,100175
2019-01-25T07:19:23.000Z,100184
2019-01-25T07:21:08.000Z,100176
2019-01-25T07:22:23.000Z,100179
2019-01-25T07:24:08.000Z,100178
2019-01-25T07:26:23.000Z,100179
2019-01-25T07:27:23.000Z,100182
2019-01-25T07:29:23.000Z,100180
2019-01-25T07:31:23.000Z,100182
2019-01-25T07:33:08.000Z,100183
2019-01-25T07:34:08.000Z,100189
2019-01-25T07:36:23.000Z,100187
2019-01-25T07:37:23.000Z,100182
2019-01-25T07:39:23.000Z,100191
2019-01-25T07:40:23.000Z,100182
2019-01-25T07:41:53.000Z,100181
2019-01-25T07:43:23.000Z,100179
2019-01-25T07:44:52.000Z,100177
2019-01-25T07:46:23.000Z,100179
2019-01-25T07:48:23.000Z,100177
2019-01-25T07:49:23.000Z,100183
2019-01-25T07:51:23.000Z,100179
2019-01-25T07:53:23.000Z,100180
2019-01-25T07:55:08.000Z,100181
2019-01-25T07:57:08.000Z,100175
2019-01-25T07:58:08.000Z,100175
2019-01-25T08:00:08.000Z,100182
2019-01-25T08:01:23.000Z,100180
2019-01-25T08:02:23.000Z,100178
2019-01-25T08:04:23.000Z,100179
2019-01-25T08:06:08.000Z,100179
2019-01-25T08:07:23.000Z,100182
2019-01-25T08:09:23.000Z,100176
2019-01-25T08:11:08.000Z,100178
2019-01-25T08:13:23.000Z,100180
2019-01-25T08:15:23.000Z,100178
2019-01-25T08:17:23.000Z,100170
2019-01-25T08:19:23.000Z,100169
2019-01-25T08:20:23.000Z,100167
2019-01-25T08:21:23.000Z,100171
2019-01-25T08:23:23.000Z,100174
2019-01-25T08:25:23.000Z,100172
2019-01-25T08:26:53.000Z,100177
2019-01-25T08:28:08.000Z,100182
2019-01-25T08:30:23.000Z,100184
2019-01-25T08:31:52.000Z,100196
2019-01-25T08:33:23.000Z,100193
2019-01-25T08:35:23.000Z,100192
2019-01-25T08:37:23.000Z,100202
2019-01-25T08:39:23.000Z,100198
2019-01-25T08:40:53.000Z,100198
2019-01-25T08:42:08.000Z,100198
2019-01-25T08:44:23.000Z,100194
2019-01-25T08:46:23.000Z,100185
2019-01-25T08:47:23.000Z,100183
2019-01-25T08:49:08.000Z,100192
2019-01-25T08:51:23.000Z,100194
2019-01-25T08:53:08.000Z,100187
2019-01-25T08:54:23.000Z,100181
2019-01-25T08:56:23.000Z,100185
2019-01-25T08:58:08.000Z,100187
2019-01-25T08:59:23.000Z,100201
2019-01-25T09:01:23.000Z,100192
2019-01-25T09:02:53.000Z,100194
2019-01-25T09:04:23.000Z,100199
2019-01-25T09:06:23.000Z,100209
2019-01-25T09:08:23.000Z,100207
2019-01-25T09:10:23.000Z,100213
2019-01-25T09:12:23.000Z,100214
2019-01-25T09:14:23.000Z,100206
2019-01-25T09:16:23.000Z,100209
2019-01-25T09:18:08.000Z,100203
2019-01-25T09:19:23.000Z,100203
2019-01-25T09:21:08.000Z,100206
2019-01-25T09:22:08.000Z,100199
2019-01-25T09:23:23.000Z,100205
2019-01-25T09:25:23.000Z,100208
2019-01-25T09:27:23.000Z,100197
2019-01-25T09:28:23.000Z,100195
2019-01-25T09:30:23.000Z,100196
2019-01-25T09:31:23.000Z,100199
2019-01-25T09:32:23.000Z,100195
2019-01-25T09:34:23.000Z,100193
2019-01-25T09:36:08.000Z,100195
2019-01-25T09:37:23.000Z,100193
2019-01-25T09:38:23.000Z,100208
2019-01-25T09:39:23.000Z,100200
2019-01-25T09:41:23.000Z,100191
2019-01-25T09:43:08.000Z,100197
2019-01-25T09:44:23.000Z,100201
2019-01-25T09:45:23.000Z,100202
2019-01-25T09:47:23.000Z,100200
2019-01-25T09:49:23.000Z,100212
2019-01-25T09:51:23.000Z,100214
2019-01-25T09:53:08.000Z,100204
2019-01-25T09:54:23.000Z,100215
2019-01-25T09:56:23.000Z,100202
2019-01-25T09:57:23.000Z,100215
2019-01-25T09:59:08.000Z,100205
2019-01-25T10:00:23.000Z,100195
2019-01-25T10:01:23.000Z,100195
2019-01-25T10:03:23.000Z,100197
2019-01-25T10:04:53.000Z,100208
2019-01-25T10:06:23.000Z,100191
2019-01-25T10:07:23.000Z,100203
2019-01-25T10:09:08.000Z,100192
2019-01-25T10:10:23.000Z,100190
2019-01-25T10:12:23.000Z,100193
2019-01-25T10:13:23.000Z,100195
2019-01-25T10:14:23.000Z,100182
2019-01-25T10:16:23.000Z,100190
2019-01-25T10:18:08.000Z,100182
2019-01-25T10:19:23.000Z,100183
2019-01-25T10:21:23.000Z,100182
2019-01-25T10:23:23.000Z,100173
2019-01-25T10:24:23.000Z,100163
2019-01-25T10:26:23.000Z,100152
2019-01-25T10:27:23.000Z,100154
2019-01-25T10:29:23.000Z,100154
2019-01-25T10:31:23.000Z,100155
2019-01-25T10:33:23.000Z,100153
2019-01-25T10:35:23.000Z,100159
2019-01-25T10:36:23.000Z,100161
2019-01-25T10:38:23.000Z,100148
2019-01-25T10:40:23.000Z,100147
2019-01-25T10:41:23.000Z,100146
2019-01-25T10:42:53.000Z,100156
2019-01-25T10:44:23.000Z,100145
2019-01-25T10:46:08.000Z,100148
2019-01-25T10:47:23.000Z,100153
2019-01-25T10:49:23.000Z,100161
2019-01-25T10:50:23.000Z,100152
2019-01-25T10:52:08.000Z,100156
2019-01-25T10:54:23.000Z,100151
2019-01-25T10:55:23.000Z,100153
2019-01-25T10:57:23.000Z,100152
2019-01-25T10:58:23.000Z,100144
2019-01-25T10:59:23.000Z,100140
2019-01-25T11:00:23.000Z,100139
2019-01-25T11:02:23.000Z,100135
2019-01-25T11:04:08.000Z,100143
2019-01-25T11:05:23.000Z,100139
2019-01-25T11:06:23.000Z,100144
2019-01-25T11:08:23.000Z,100138
2019-01-25T11:09:23.000Z,100132
2019-01-25T11:10:23.000Z,100130
2019-01-25T11:12:23.000Z,100136
2019-01-25T11:14:23.000Z,100132
2019-01-25T11:15:23.000Z,100122
2019-01-25T11:17:08.000Z,100118
2019-01-25T11:18:23.000Z,100118
2019-01-25T11:20:23.000Z,100108
2019-01-25T11:21:23.000Z,100107
2019-01-25T11:23:23.000Z,100103
2019-01-25T11:25:23.000Z,100110
2019-01-25T11:27:23.000Z,100099
2019-01-25T11:28:23.000Z,100114
2019-01-25T11:30:23.000Z,100102
2019-01-25T11:31:23.000Z,100108
2019-01-25T11:33:23.000Z,100106
2019-01-25T11:34:23.000Z,100103
2019-01-25T11:36:08.000Z,100104
2019-01-25T11:37:23.000Z,100103
2019-01-25T11:39:23.000Z,100107
2019-01-25T11:41:23.000Z,100103
2019-01-25T11:43:08.000Z,100106
2019-01-25T11:45:23.000Z,100102
2019-01-25T11:47:23.000Z,100101
2019-01-25T11:48:23.000Z,100102
2019-01-25T11:49:23.000Z,100095
2019-01-25T11:51:08.000Z,100098
2019-01-25T11:52:23.000Z,100093
2019-01-25T11:54:23.000Z,100096
2019-01-25T11:55:23.000Z,100093
2019-01-25T11:57:08.000Z,100096
2019-01-25T11:58:23.000Z,100097
2019-01-25T12:00:23.000Z,100105
2019-01-25T12:01:23.000Z,100106
2019-01-25T12:03:23.000Z,100120
2019-01-25T12:05:23.000Z,100108
2019-01-25T12:07:23.000Z,100110
2019-01-25T12:09:23.000Z,100118
2019-01-25T12:11:23.000Z,100120
2019-01-25T12:12:23.000Z,100119
2019-01-25T12:14:08.000Z,100116
2019-01-25T12:15:23.000Z,100119
2019-01-25T12:16:52.000Z,100120
2019-01-25T12:18:23.000Z,100116
2019-01-25T12:20:23.000Z,100120
2019-01-25T12:21:23.000Z,100118
2019-01-25T12:23:23.000Z,100143
2019-01-25T12:24:23.000Z,100134
2019-01-25T12:26:23.000Z,100133
2019-01-25T12:28:23.000Z,100127
2019-01-25T12:29:53.000Z,100127
2019-01-25T12:31:08.000Z,100117
2019-01-25T12:32:23.000Z,100104
2019-01-25T12:34:23.000Z,100104
2019-01-25T12:36:23.000Z,100111
2019-01-25T12:38:08.000Z,100108
2019-01-25T12:39:23.000Z,100108
2019-01-25T12:41:23.000Z,100105
2019-01-25T12:43:23.000Z,100106
2019-01-25T12:45:23.000Z,100111
2019-01-25T12:47:23.000Z,100102
2019-01-25T12:49:23.000Z,100096
2019-01-25T12:51:23.000Z,100097
2019-01-25T12:52:23.000Z,100092
2019-01-25T12:54:23.000Z,100095
2019-01-25T12:55:23.000Z,100094
2019-01-25T12:57:08.000Z,100088
2019-01-25T12:58:23.000Z,100088
2019-01-25T13:00:23.000Z,100078
2019-01-25T13:02:24.000Z,100070
2019-01-25T13:04:24.000Z,100078
2019-01-25T13:05:24.000Z,100070
2019-01-25T13:06:24.000Z,100070
2019-01-25T13:08:24.000Z,100075
2019-01-25T13:10:24.000Z,100053
2019-01-25T13:11:24.000Z,100065
2019-01-25T13:12:24.000Z,100060
2019-01-25T13:14:08.000Z,100063
2019-01-25T13:15:24.000Z,100061
2019-01-25T13:16:24.000Z,100082
2019-01-25T13:18:24.000Z,100061
2019-01-25T13:20:09.000Z,100058
2019-01-25T13:21:24.000Z,100053
2019-01-25T13:23:24.000Z,100056
2019-01-25T13:24:24.000Z,100046
2019-01-25T13:26:24.000Z,100044
2019-01-25T13:27:24.000Z,100049
2019-01-25T13:29:08.000Z,100054
2019-01-25T13:30:09.000Z,100054
2019-01-25T13:31:24.000Z,100062
2019-01-25T13:33:24.000Z,100062
2019-01-25T13:35:09.000Z,100045
2019-01-25T13:36:53.000Z,100042
2019-01-25T13:38:24.000Z,100047
2019-01-25T13:39:24.000Z,100042
2019-01-25T13:41:24.000Z,100025
2019-01-25T13:43:08.000Z,100025
2019-01-25T13:44:24.000Z,100022
2019-01-25T13:46:24.000Z,100019
2019-01-25T13:48:08.000Z,100010
2019-01-25T13:49:24.000Z,100014
2019-01-25T13:50:24.000Z,100011
2019-01-25T13:52:09.000Z,100011
2019-01-25T13:53:09.000Z,100010
2019-01-25T13:55:24.000Z,100003
2019-01-25T13:57:08.000Z,100010
2019-01-25T13:58:24.000Z,100015
2019-01-25T13:59:24.000Z,100011
2019-01-25T14:01:24.000Z,100023
2019-01-25T14:03:24.000Z,100018
2019-01-25T14:05:24.000Z,100010
2019-01-25T14:07:23.000Z,100004
2019-01-25T14:08:23.000Z,100004
2019-01-25T14:10:23.000Z,100005
2019-01-25T14:12:23.000Z,100000
2019-01-25T14:13:23.000Z,99997
2019-01-25T14:15:08.000Z,99988
2019-01-25T14:16:23.000Z,99985
2019-01-25T14:18:23.000Z,99990
2019-01-25T14:19:23.000Z,99994
2019-01-25T14:20:23.000Z,99984
2019-01-25T14:22:23.000Z,99975
2019-01-25T14:24:23.000Z,99973
2019-01-25T14:26:08.000Z,99968
2019-01-25T14:27:23.000Z,99969
2019-01-25T14:28:23.000Z,99961
2019-01-25T14:30:23.000Z,99959
2019-01-25T14:32:23.000Z,99955
2019-01-25T14:33:23.000Z,99962
2019-01-25T14:35:23.000Z,99946
2019-01-25T14:36:23.000Z,99943
2019-01-25T14:37:23.000Z,99941
2019-01-25T14:39:08.000Z,99937
2019-01-25T14:40:08.000Z,99936
2019-01-25T14:41:23.000Z,99941
2019-01-25T14:43:23.000Z,99951
2019-01-25T14:45:08.000Z,99940
2019-01-25T14:46:23.000Z,99941
2019-01-25T14:48:23.000Z,99940
2019-01-25T14:50:23.000Z,99946
2019-01-25T14:52:23.000Z,99941
2019-01-25T14:53:23.000Z,99946
2019-01-25T14:55:08.000Z,99948
2019-01-25T14:56:23.000Z,99948
2019-01-25T14:57:23.000Z,99947
2019-01-25T14:59:23.000Z,99941
2019-01-25T15:01:23.000Z,99933
2019-01-25T15:03:23.000Z,99929
2019-01-25T15:05:23.000Z,99932
2019-01-25T15:07:23.000Z,99932
2019-01-25T15:08:23.000Z,99931
2019-01-25T15:10:23.000Z,99934
2019-01-25T15:12:23.000Z,99939
2019-01-25T15:13:23.000Z,99935
2019-01-25T15:15:23.000Z,99934
2019-01-25T15:16:23.000Z,99935
2019-01-25T15:18:23.000Z,99932
2019-01-25T15:20:23.000Z,99928
2019-01-25T15:22:08.000Z,99924
2019-01-25T15:23:23.000Z,99930
2019-01-25T15:25:23.000Z,99919
2019-01-25T15:27:08.000Z,99916
2019-01-25T15:28:08.000Z,99907
2019-01-25T15:30:08.000Z,99926
2019-01-25T15:31:23.000Z,99916
2019-01-25T15:33:23.000Z,99913
2019-01-25T15:34:23.000Z,99909
2019-01-25T15:35:23.000Z,99908
2019-01-25T15:36:23.000Z,99908
2019-01-25T15:38:23.000Z,99902
2019-01-25T15:40:23.000Z,99910
2019-01-25T15:41:23.000Z,99909
2019-01-25T15:43:08.000Z,99914
2019-01-25T15:44:08.000Z,99918
2019-01-25T15:46:23.000Z,99916
2019-01-25T15:48:23.000Z,99921
2019-01-25T15:50:23.000Z,99917
2019-01-25T15:52:23.000Z,99915
2019-01-25T15:53:23.000Z,99914
2019-01-25T15:55:23.000Z,99916
2019-01-25T15:57:23.000Z,99910
2019-01-25T15:59:23.000Z,99912
2019-01-25T16:00:23.000Z,99908
2019-01-25T16:02:23.000Z,99900
2019-01-25T16:04:08.000Z,99907
2019-01-25T16:05:23.000Z,99910
2019-01-25T16:06:23.000Z,99907
2019-01-25T16:08:08.000Z,99917
2019-01-25T16:09:08.000Z,99912
2019-01-25T16:11:23.000Z,99910
2019-01-25T16:13:23.000Z,99906
2019-01-25T16:14:23.000Z,99905
2019-01-25T16:16:08.000Z,99900
2019-01-25T16:17:23.000Z,99899
2019-01-25T16:19:23.000Z,99894
2019-01-25T16:20:23.000Z,99891
2019-01-25T16:22:08.000Z,99888
2019-01-25T16:23:23.000Z,99891
2019-01-25T16:24:23.000Z,99896
2019-01-25T16:26:23.000Z,99891
2019-01-25T16:27:23.000Z,99892
2019-01-25T16:28:23.000Z,99888
2019-01-25T16:30:23.000Z,99887
2019-01-25T16:32:23.000Z,99880
2019-01-25T16:34:23.000Z,99887
2019-01-25T16:36:23.000Z,99889
2019-01-25T16:38:23.000Z,99878
2019-01-25T16:40:23.000Z,99862
2019-01-25T16:41:23.000Z,99868
2019-01-25T16:43:08.000Z,99860
2019-01-25T16:44:23.000Z,99861
2019-01-25T16:46:23.000Z,99856
2019-01-25T16:48:23.000Z,99856
2019-01-25T16:50:23.000Z,99854
2019-01-25T16:52:23.000Z,99857
2019-01-25T16:54:23.000Z,99855
2019-01-25T16:56:23.000Z,99855
2019-01-25T16:57:23.000Z,99859
2019-01-25T16:59:23.000Z,99850
2019-01-25T17:01:23.000Z,99856
2019-01-25T17:03:23.000Z,99846
2019-01-25T17:05:23.000Z,99849
2019-01-25T17:07:23.000Z,99843
2019-01-25T17:09:23.000Z,99847
2019-01-25T17:11:08.000Z,99845
2019-01-25T17:12:23.000Z,99857
2019-01-25T17:14:23.000Z,99850
2019-01-25T17:15:53.000Z,99840
2019-01-25T17:17:23.000Z,99844
2019-01-25T17:18:23.000Z,99843
2019-01-25T17:19:23.000Z,99839
2019-01-25T17:21:23.000Z,99836
2019-01-25T17:23:08.000Z,99841
2019-01-25T17:24:23.000Z,99838
2019-01-25T17:25:23.000Z,99835
2019-01-25T17:27:23.000Z,99841
2019-01-25T17:29:23.000Z,99839
2019-01-25T17:30:23.000Z,99845
2019-01-25T17:32:23.000Z,99832
2019-01-25T17:33:23.000Z,99826
2019-01-25T17:35:23.000Z,99824
2019-01-25T17:37:23.000Z,99816
2019-01-25T17:39:23.000Z,99806
2019-01-25T17:41:08.000Z,99805
2019-01-25T17:42:23.000Z,99803
2019-01-25T17:44:23.000Z,99803
2019-01-25T17:46:23.000Z,99805
2019-01-25T17:48:23.000Z,99802
2019-01-25T17:50:23.000Z,99797
2019-01-25T17:52:08.000Z,99794
2019-01-25T17:53:23.000Z,99793
2019-01-25T17:55:23.000Z,99795
2019-01-25T17:57:23.000Z,99792
2019-01-25T17:58:23.000Z,99786
2019-01-25T18:00:23.000Z,99792
2019-01-25T18:02:23.000Z,99791
2019-01-25T18:04:08.000Z,99787
2019-01-25T18:05:23.000Z,99782
2019-01-25T18:07:23.000Z,99778
2019-01-25T18:09:23.000Z,99770
2019-01-25T18:11:23.000Z,99756
2019-01-25T18:13:23.000Z,99751
2019-01-25T18:14:23.000Z,99749
2019-01-25T18:16:23.000Z,99746
2019-01-25T18:18:23.000Z,99746
2019-01-25T18:20:23.000Z,99751
2019-01-25T18:22:23.000Z,99746
2019-01-25T18:23:23.000Z,99745
2019-01-25T18:25:23.000Z,99742
2019-01-25T18:27:23.000Z,99744
2019-01-25T18:29:23.000Z,99749
2019-01-25T18:30:23.000Z,99744
2019-01-25T18:32:23.000Z,99739
2019-01-25T18:34:23.000Z,99726
2019-01-25T18:36:23.000Z,99731
2019-01-25T18:37:23.000Z,99740
2019-01-25T18:39:23.000Z,99734
2019-01-25T18:40:23.000Z,99727
2019-01-25T18:41:23.000Z,99728
2019-01-25T18:43:23.000Z,99726
2019-01-25T18:44:23.000Z,99721
2019-01-25T18:46:23.000Z,99725
2019-01-25T18:47:23.000Z,99729
2019-01-25T18:49:23.000Z,99725
2019-01-25T18:51:23.000Z,99722
2019-01-25T18:53:23.000Z,99727
2019-01-25T18:54:23.000Z,99727
2019-01-25T18:55:23.000Z,99717
2019-01-25T18:57:23.000Z,99716
2019-01-25T18:58:23.000Z,99720
2019-01-25T19:00:23.000Z,99713
2019-01-25T19:02:23.000Z,99711
2019-01-25T19:03:23.000Z,99706
2019-01-25T19:05:23.000Z,99712
2019-01-25T19:07:08.000Z,99699
2019-01-25T19:08:23.000Z,99707
2019-01-25T19:10:23.000Z,99703
2019-01-25T19:12:23.000Z,99698
2019-01-25T19:13:23.000Z,99704
2019-01-25T19:15:23.000Z,99698
2019-01-25T19:17:23.000Z,99696
2019-01-25T19:19:08.000Z,99701
2019-01-25T19:20:23.000Z,99701
2019-01-25T19:22:08.000Z,99698
2019-01-25T19:23:23.000Z,99704
2019-01-25T19:25:23.000Z,99702
2019-01-25T19:27:23.000Z,99698
2019-01-25T19:29:23.000Z,99686
2019-01-25T19:31:23.000Z,99691
2019-01-25T19:32:23.000Z,99693
2019-01-25T19:34:23.000Z,99688
2019-01-25T19:36:08.000Z,99685
2019-01-25T19:37:23.000Z,99684
2019-01-25T19:38:23.000Z,99679
2019-01-25T19:40:23.000Z,99673
2019-01-25T19:42:23.000Z,99663
2019-01-25T19:44:23.000Z,99673
2019-01-25T19:46:23.000Z,99674
2019-01-25T19:47:23.000Z,99673
2019-01-25T19:49:23.000Z,99665
2019-01-25T19:50:23.000Z,99675
2019-01-25T19:51:23.000Z,99666
2019-01-25T19:53:08.000Z,99679
2019-01-25T19:54:23.000Z,99673
2019-01-25T19:56:23.000Z,99658
2019-01-25T19:57:23.000Z,99661
2019-01-25T19:59:23.000Z,99670
2019-01-25T20:01:23.000Z,99667
2019-01-25T20:03:08.000Z,99663
2019-01-25T20:04:23.000Z,99658
2019-01-25T20:06:23.000Z,99660
2019-01-25T20:07:23.000Z,99665
2019-01-25T20:09:23.000Z,99664
2019-01-25T20:10:23.000Z,99654
2019-01-25T20:12:23.000Z,99651
2019-01-25T20:13:23.000Z,99649
2019-01-25T20:15:23.000Z,99649